Time;durP1;ratioP1;P1;durP2;ratioP2;P2;SDS_P1;SDS_P2;PMS_P1;PMS_P2;Temp;Humidity;BMP_temperature;BMP_pressure;BME280_temperature;BME280_humidity;BME280_pressure;Samples;Min_cycle;Max_cycle;Signal;HPM_P1;HPM_P2
2022/08/22 00:02:18;;;;;;;3.97;2.47;;;;;;;19.80;100.00;98385.22;4913095;29;20589;-66
2022/08/22 00:04:53;;;;;;;4.93;2.53;;;;;;;19.79;100.00;98383.63;4912803;29;20318;-65
2022/08/22 00:07:30;;;;;;;4.27;2.57;;;;;;;19.83;100.00;98382.25;4912847;29;20218;-66
2022/08/22 00:10:04;;;;;;;4.90;2.67;;;;;;;19.81;100.00;98381.63;4912705;29;20288;-66
2022/08/22 00:12:37;;;;;;;4.27;2.50;;;;;;;19.75;100.00;98374.59;4912777;29;20199;-66
2022/08/22 00:15:09;;;;;;;4.20;2.50;;;;;;;19.71;100.00;98366.41;4913111;29;20225;-66
2022/08/22 00:17:44;;;;;;;4.03;2.50;;;;;;;19.75;100.00;98372.00;4913069;29;20217;-66
2022/08/22 00:20:19;;;;;;;5.43;2.60;;;;;;;19.81;100.00;98382.47;4912750;29;20218;-58
2022/08/22 00:22:52;;;;;;;4.77;2.40;;;;;;;19.76;100.00;98389.19;4912897;29;20202;-58
2022/08/22 00:25:37;;;;;;;4.23;2.60;;;;;;;19.78;100.00;98387.19;4912437;29;20229;-66
2022/08/22 00:28:09;;;;;;;4.43;2.60;;;;;;;19.83;100.00;98390.84;4912692;29;20207;-66
2022/08/22 00:30:48;;;;;;;3.93;2.47;;;;;;;19.90;100.00;98393.50;4912525;29;20245;-66
2022/08/22 00:33:24;;;;;;;4.77;2.53;;;;;;;19.97;100.00;98394.34;4914621;29;20223;-66
2022/08/22 00:36:00;;;;;;;3.60;2.23;;;;;;;20.01;100.00;98398.19;4916342;29;20233;-66
2022/08/22 00:38:31;;;;;;;4.47;2.33;;;;;;;20.07;100.00;98396.59;4915901;29;20219;-66
2022/08/22 00:41:09;;;;;;;3.00;2.13;;;;;;;20.08;100.00;98393.84;4916285;29;20738;-58
2022/08/22 00:44:30;;;;;;;4.63;2.50;;;;;;;20.11;100.00;98392.66;4916176;29;20609;-58
2022/08/22 00:47:20;;;;;;;3.50;2.37;;;;;;;20.13;100.00;98386.28;4916205;29;20243;-58
2022/08/22 00:50:14;;;;;;;3.40;2.10;;;;;;;20.09;100.00;98385.06;4915949;29;20234;-66
2022/08/22 00:52:58;;;;;;;3.90;2.60;;;;;;;20.15;100.00;98393.88;4915776;29;20209;-66
2022/08/22 00:55:42;;;;;;;3.03;1.93;;;;;;;20.12;100.00;98405.44;4915535;29;20229;-58
2022/08/22 00:58:45;;;;;;;4.00;2.10;;;;;;;20.15;100.00;98413.84;4915699;29;20212;-58
2022/08/22 01:01:15;;;;;;;6.90;2.53;;;;;;;20.23;100.00;98417.09;4915332;29;20312;-58
2022/08/22 01:04:14;;;;;;;3.40;2.20;;;;;;;20.24;100.00;98410.91;4915794;29;20222;-58
2022/08/22 01:06:57;;;;;;;3.80;2.40;;;;;;;20.26;100.00;98410.72;4915222;29;20275;-58
2022/08/22 01:09:40;;;;;;;2.93;2.00;;;;;;;20.24;100.00;98423.09;4915504;29;20201;-58
2022/08/22 01:12:37;;;;;;;3.03;2.10;;;;;;;20.25;100.00;98424.72;4915464;29;20261;-58
2022/08/22 01:15:08;;;;;;;4.33;2.47;;;;;;;20.14;100.00;98441.59;4915035;29;20652;-58
2022/08/22 01:18:08;;;;;;;3.97;2.30;;;;;;;20.11;100.00;98434.19;4915290;29;20689;-58
2022/08/22 01:21:10;;;;;;;4.30;2.67;;;;;;;20.08;100.00;98437.97;4915190;29;20242;-58
2022/08/22 01:24:09;;;;;;;5.23;2.87;;;;;;;20.00;100.00;98435.50;4895384;29;20227;-65
2022/08/22 01:27:17;;;;;;;4.50;2.73;;;;;;;19.97;100.00;98430.69;4915071;29;20253;-64
2022/08/22 01:30:21;;;;;;;6.17;3.37;;;;;;;20.02;100.00;98441.31;4915114;29;20231;-66
2022/08/22 01:33:33;;;;;;;4.63;3.00;;;;;;;20.01;100.00;98441.47;4915147;29;20208;-66
2022/08/22 01:36:39;;;;;;;6.20;3.20;;;;;;;20.05;100.00;98422.75;4854648;29;20258;-58
2022/08/22 01:39:45;;;;;;;5.97;3.20;;;;;;;20.08;100.00;98427.56;4914840;29;20652;-66
2022/08/22 01:42:53;;;;;;;5.73;3.23;;;;;;;20.12;100.00;98428.78;4914865;29;20297;-66
2022/08/22 01:45:49;;;;;;;6.90;3.13;;;;;;;20.19;100.00;98430.63;4906429;29;20242;-58
2022/08/22 01:48:21;;;;;;;4.70;3.20;;;;;;;20.27;100.00;98438.28;4914579;29;20601;-58
2022/08/22 01:50:53;;;;;;;6.40;3.50;;;;;;;20.32;100.00;98441.13;4914568;29;20230;-65
2022/08/22 01:53:27;;;;;;;5.03;3.07;;;;;;;20.38;100.00;98447.34;4914505;29;20218;-65
2022/08/22 01:56:02;;;;;;;4.20;2.77;;;;;;;20.37;100.00;98436.19;4914636;29;20227;-58
2022/08/22 01:58:32;;;;;;;5.57;3.50;;;;;;;20.36;100.00;98437.16;4914583;29;20201;-58
2022/08/22 02:01:21;;;;;;;4.70;2.90;;;;;;;20.37;100.00;98438.78;4914939;29;20231;-58
2022/08/22 02:04:03;;;;;;;6.57;3.63;;;;;;;20.40;100.00;98442.78;4914412;29;20582;-59
2022/08/22 02:06:42;;;;;;;8.47;3.57;;;;;;;20.39;100.00;98442.00;4914274;29;20246;-58
2022/08/22 02:09:26;;;;;;;5.43;3.20;;;;;;;20.42;100.00;98446.81;4914512;29;20700;-59
2022/08/22 02:11:56;;;;;;;7.40;3.40;;;;;;;20.44;100.00;98442.19;4914648;29;20199;-58
2022/08/22 02:14:40;;;;;;;5.10;3.23;;;;;;;20.44;100.00;98449.19;4914660;29;20222;-58
2022/08/22 02:17:14;;;;;;;5.73;3.20;;;;;;;20.43;100.00;98443.19;4914445;29;20206;-65
2022/08/22 02:19:51;;;;;;;5.50;3.27;;;;;;;20.43;100.00;98448.41;4920230;29;20723;-66
2022/08/22 02:22:29;;;;;;;5.37;3.30;;;;;;;20.45;100.00;98449.00;4933014;29;20975;-66
2022/08/22 02:25:08;;;;;;;5.53;3.10;;;;;;;20.46;100.00;98437.63;4933196;29;20225;-58
2022/08/22 02:27:44;;;;;;;6.80;3.33;;;;;;;20.46;100.00;98431.63;4933066;29;20258;-58
2022/08/22 02:30:14;;;;;;;6.10;3.53;;;;;;;20.46;100.00;98429.03;4932788;29;20224;-66
2022/08/22 02:32:54;;;;;;;8.13;4.13;;;;;;;20.45;100.00;98430.84;4933134;29;20256;-66
2022/08/22 02:35:26;;;;;;;6.23;3.63;;;;;;;20.44;100.00;98429.22;4933139;29;20231;-66
2022/08/22 02:38:06;;;;;;;7.10;4.10;;;;;;;20.48;100.00;98434.84;4933194;29;20216;-58
2022/08/22 02:40:39;;;;;;;6.07;3.83;;;;;;;20.47;100.00;98433.22;4933017;29;20726;-58
2022/08/22 02:43:17;;;;;;;8.30;3.93;;;;;;;20.51;100.00;98427.47;4932764;29;20197;-66
2022/08/22 02:45:51;;;;;;;6.30;3.77;;;;;;;20.54;100.00;98429.72;4932692;29;20456;-66
2022/08/22 02:48:31;;;;;;;6.63;4.10;;;;;;;20.52;100.00;98426.50;4932608;29;20213;-58
2022/08/22 02:51:03;;;;;;;6.60;3.80;;;;;;;20.52;100.00;98426.50;4932952;29;20236;-58
2022/08/22 02:53:38;;;;;;;7.30;4.17;;;;;;;20.55;100.00;98425.31;4932662;29;20698;-58
2022/08/22 02:56:13;;;;;;;7.47;4.17;;;;;;;20.51;100.00;98422.28;4931959;29;20220;-58
2022/08/22 02:58:48;;;;;;;6.50;3.87;;;;;;;20.52;100.00;98420.47;4932712;29;20208;-59
2022/08/22 03:01:33;;;;;;;7.23;4.53;;;;;;;20.54;100.00;98426.31;4932451;29;20238;-58
2022/08/22 03:04:20;;;;;;;7.43;3.93;;;;;;;20.52;100.00;98426.50;4932356;29;20233;-58
2022/08/22 03:07:05;;;;;;;7.53;4.43;;;;;;;20.55;100.00;98431.31;4932393;29;20801;-58
2022/08/22 03:09:36;;;;;;;6.10;3.67;;;;;;;20.54;100.00;98434.91;4932307;29;20205;-66
2022/08/22 03:12:15;;;;;;;6.80;3.80;;;;;;;20.59;100.00;98429.13;4932327;29;20292;-66
2022/08/22 03:14:49;;;;;;;7.97;3.90;;;;;;;20.57;100.00;98431.13;4932245;29;20508;-64
2022/08/22 03:17:21;;;;;;;7.57;4.10;;;;;;;20.49;100.00;98426.84;4932423;29;20597;-66
2022/08/22 03:19:56;;;;;;;6.97;3.87;;;;;;;20.49;100.00;98437.25;4932165;29;20228;-66
2022/08/22 03:22:31;;;;;;;5.37;3.70;;;;;;;20.48;100.00;98430.47;4932213;29;20199;-58
2022/08/22 03:25:09;;;;;;;5.50;3.43;;;;;;;20.47;100.00;98431.44;4932592;29;20430;-58
2022/08/22 03:27:42;;;;;;;5.27;3.60;;;;;;;20.48;100.00;98435.66;4932168;29;20531;-66
2022/08/22 03:30:18;;;;;;;8.17;4.13;;;;;;;20.48;100.00;98434.84;4931942;29;20729;-66
2022/08/22 03:32:53;;;;;;;7.00;3.90;;;;;;;20.49;100.00;98432.06;4932380;29;20228;-66
2022/08/22 03:35:30;;;;;;;6.47;3.73;;;;;;;20.50;100.00;98432.84;4932395;29;20345;-66
2022/08/22 03:38:14;;;;;;;6.03;3.63;;;;;;;20.47;100.00;98434.03;4932131;29;20206;-58
2022/08/22 03:40:56;;;;;;;8.23;4.37;;;;;;;20.49;100.00;98437.25;4932295;29;20405;-59
2022/08/22 03:43:46;;;;;;;8.10;3.73;;;;;;;20.49;100.00;98442.44;4932089;29;20204;-66
2022/08/22 03:46:40;;;;;;;6.60;3.80;;;;;;;20.46;100.00;98448.00;4931720;29;20233;-58
2022/08/22 03:49:47;;;;;;;9.40;3.50;;;;;;;20.37;100.00;98438.78;4931907;29;20221;-58
2022/08/22 03:52:28;;;;;;;6.20;3.87;;;;;;;20.37;100.00;98430.97;4931905;29;20225;-58
2022/08/22 03:55:10;;;;;;;9.53;4.03;;;;;;;20.38;100.00;98432.56;4931892;29;20219;-58
2022/08/22 03:58:09;;;;;;;7.47;3.93;;;;;;;20.45;100.00;98432.59;4932036;29;20198;-58
2022/08/22 04:01:27;;;;;;;6.63;3.70;;;;;;;20.50;100.00;98444.03;4928843;29;20225;-58
2022/08/22 04:04:24;;;;;;;7.47;4.10;;;;;;;20.55;100.00;98467.69;4891543;29;20204;-58
2022/08/22 04:07:19;;;;;;;11.50;4.17;;;;;;;20.54;100.00;98460.88;4891456;29;20750;-66
2022/08/22 04:10:33;;;;;;;6.10;3.73;;;;;;;20.53;100.00;98461.06;4933830;29;20315;-66
2022/08/22 04:13:35;;;;;;;8.03;4.03;;;;;;;20.55;100.00;98456.50;4907818;29;20205;-66
2022/08/22 04:16:31;;;;;;;6.60;3.97;;;;;;;20.59;100.00;98462.91;4933485;29;20239;-66
2022/08/22 04:19:30;;;;;;;6.23;3.63;;;;;;;20.64;100.00;98464.94;4935346;29;20259;-66
2022/08/22 04:22:25;;;;;;;6.60;3.67;;;;;;;20.63;100.00;98471.13;4935326;29;20208;-66
2022/08/22 04:24:59;;;;;;;6.07;3.83;;;;;;;20.65;100.00;98471.72;4934308;29;20288;-58
2022/08/22 04:27:32;;;;;;;7.43;4.27;;;;;;;20.70;100.00;98467.56;4935151;29;20677;-58
2022/08/22 04:30:07;;;;;;;6.63;4.03;;;;;;;20.75;100.00;98472.19;4935101;29;20221;-65
2022/08/22 04:32:40;;;;;;;8.07;4.17;;;;;;;20.75;100.00;98472.19;4935208;29;20209;-65
2022/08/22 04:35:16;;;;;;;6.50;3.80;;;;;;;20.79;100.00;98470.81;4935059;29;20230;-58
2022/08/22 04:37:49;;;;;;;7.73;4.27;;;;;;;20.84;100.00;98476.25;4935048;29;20425;-58
2022/08/22 04:40:23;;;;;;;7.07;4.43;;;;;;;20.82;100.00;98483.41;4935293;29;20228;-66
2022/08/22 04:42:54;;;;;;;8.63;4.23;;;;;;;20.77;100.00;98478.03;4935480;29;20204;-66
2022/08/22 04:45:26;;;;;;;6.83;4.30;;;;;;;20.78;100.00;98483.00;4934766;29;20221;-67
2022/08/22 04:47:59;;;;;;;6.63;3.93;;;;;;;20.81;100.00;98487.03;4934962;29;20232;-58
2022/08/22 04:50:32;;;;;;;6.33;3.57;;;;;;;20.88;100.00;98487.84;4935073;29;20242;-58
2022/08/22 04:53:13;;;;;;;8.87;4.50;;;;;;;20.93;100.00;98490.69;4934835;29;20194;-66
2022/08/22 04:55:49;;;;;;;7.07;4.17;;;;;;;20.98;100.00;98503.09;4935111;29;20217;-66
2022/08/22 04:58:29;;;;;;;7.27;4.50;;;;;;;20.94;100.00;98502.69;4934904;29;20350;-66
2022/08/22 05:01:03;;;;;;;8.40;4.67;;;;;;;21.05;100.00;98503.13;4934811;29;20726;-66
2022/08/22 05:03:34;;;;;;;6.57;4.40;;;;;;;21.15;100.00;98498.41;4934641;29;20202;-67
2022/08/22 05:06:05;;;;;;;6.67;4.13;;;;;;;21.11;100.00;98497.16;4934500;29;20242;-67
2022/08/22 05:08:38;;;;;;;9.27;4.63;;;;;;;21.17;100.00;98502.38;4934391;29;20805;-67
2022/08/22 05:11:07;;;;;;;8.63;4.83;;;;;;;21.13;100.00;98503.78;4934642;29;20710;-58
2022/08/22 05:13:41;;;;;;;7.10;4.53;;;;;;;21.19;100.00;98510.81;4934341;29;20679;-58
2022/08/22 05:16:13;;;;;;;6.90;4.30;;;;;;;21.32;100.00;98509.25;4934345;29;20288;-67
2022/08/22 05:18:45;;;;;;;8.67;4.90;;;;;;;21.40;100.00;98516.91;4933610;29;20209;-67
2022/08/22 05:21:17;;;;;;;11.07;4.90;;;;;;;21.50;100.00;98513.94;4934047;29;20223;-67
2022/08/22 05:23:49;;;;;;;10.77;5.00;;;;;;;21.48;100.00;98517.56;4934263;29;20221;-67
2022/08/22 05:26:18;;;;;;;8.20;4.70;;;;;;;21.57;100.00;98517.38;4934212;29;20668;-66
2022/08/22 05:28:48;;;;;;;8.20;4.53;;;;;;;21.67;100.00;98512.59;4934052;29;20238;-66
2022/08/22 05:31:20;;;;;;;8.57;5.17;;;;;;;21.82;100.00;98520.25;4934130;29;20235;-59
2022/08/22 05:33:50;;;;;;;6.90;4.33;;;;;;;22.08;100.00;98509.09;4933943;29;20689;-58
2022/08/22 05:36:22;;;;;;;9.70;4.70;;;;;;;22.34;100.00;98526.53;4934004;29;20231;-59
2022/08/22 05:38:54;;;;;;;8.23;4.43;;;;;;;22.29;99.60;98532.34;4933906;29;20218;-59
2022/08/22 05:41:24;;;;;;;7.53;4.15;;;;;;;22.41;98.57;98526.56;4933917;29;20712;-59
2022/08/22 05:43:52;;;;;;;8.18;4.72;;;;;;;22.73;100.00;98522.31;4933919;29;20207;-58
2022/08/22 05:46:24;;;;;;;6.15;3.95;;;;;;;22.80;96.68;98529.09;4934092;29;20234;-59
2022/08/22 05:48:56;;;;;;;7.30;4.55;;;;;;;22.94;96.15;98531.69;4933640;29;20246;-67
2022/08/22 05:51:30;;;;;;;10.23;4.30;;;;;;;22.98;94.72;98538.13;4933870;29;20224;-67
2022/08/22 05:54:08;;;;;;;8.35;3.88;;;;;;;22.91;94.33;98550.34;4933407;29;20207;-67
2022/08/22 05:56:38;;;;;;;6.50;3.97;;;;;;;22.86;92.31;98553.56;4933879;29;20235;-67
2022/08/22 05:59:17;;;;;;;5.43;3.65;;;;;;;22.67;93.51;98560.41;4933606;29;20208;-68
2022/08/22 06:01:50;;;;;;;5.53;3.78;;;;;;;22.65;95.32;98562.41;4933724;29;20203;-67
2022/08/22 06:04:25;;;;;;;6.15;3.78;;;;;;;22.65;94.87;98565.00;4933580;29;20196;-59
2022/08/22 06:07:05;;;;;;;6.43;3.88;;;;;;;22.60;95.41;98564.81;4933325;29;20215;-59
2022/08/22 06:09:35;;;;;;;7.65;4.22;;;;;;;22.43;95.11;98563.59;4933131;29;20983;-67
2022/08/22 06:12:10;;;;;;;7.65;4.35;;;;;;;22.48;96.35;98566.41;4933642;29;20210;-67
2022/08/22 06:14:41;;;;;;;6.40;3.97;;;;;;;22.51;97.28;98563.41;4933361;29;20286;-68
2022/08/22 06:17:14;;;;;;;7.93;4.53;;;;;;;22.38;95.79;98559.81;4933302;29;20602;-59
2022/08/22 06:19:45;;;;;;;6.85;3.80;;;;;;;22.34;95.09;98556.00;4933221;29;20238;-59
2022/08/22 06:22:17;;;;;;;6.30;4.45;;;;;;;22.35;95.32;98552.41;4933182;29;20456;-68
2022/08/22 06:24:46;;;;;;;9.10;4.70;;;;;;;22.39;96.28;98555.41;4933087;29;20223;-68
2022/08/22 06:27:15;;;;;;;5.40;3.85;;;;;;;22.66;97.58;98558.81;4932910;29;20211;-59
2022/08/22 06:29:48;;;;;;;6.65;3.65;;;;;;;22.71;96.39;98566.81;4932676;29;20223;-59
2022/08/22 06:32:21;;;;;;;7.28;4.22;;;;;;;22.70;95.52;98572.25;4932918;29;20275;-59
2022/08/22 06:34:49;;;;;;;7.32;4.05;;;;;;;22.75;95.64;98572.44;4933099;29;20223;-59
2022/08/22 06:37:23;;;;;;;6.95;4.70;;;;;;;22.79;96.17;98577.03;4932883;29;20826;-59
2022/08/22 06:39:53;;;;;;;6.63;4.63;;;;;;;22.77;96.42;98570.41;4932756;29;20223;-67
2022/08/22 06:42:24;;;;;;;7.57;4.93;;;;;;;22.77;95.80;98571.22;4933094;29;20195;-67
2022/08/22 06:44:55;;;;;;;8.27;4.70;;;;;;;22.86;95.69;98573.63;4933031;29;20227;-68
2022/08/22 06:47:27;;;;;;;7.68;4.68;;;;;;;22.87;95.72;98570.03;4932903;29;20274;-59
2022/08/22 06:49:58;;;;;;;6.75;4.53;;;;;;;22.88;95.05;98572.41;4932585;29;20224;-58
2022/08/22 06:52:32;;;;;;;6.88;4.43;;;;;;;22.89;94.92;98570.59;4932783;29;20212;-59
2022/08/22 06:55:02;;;;;;;8.77;5.07;;;;;;;22.97;94.68;98570.44;4932469;29;20232;-58
2022/08/22 06:57:33;;;;;;;7.70;4.53;;;;;;;22.99;95.00;98560.59;4932902;29;20288;-59
2022/08/22 07:00:02;;;;;;;7.63;4.45;;;;;;;22.95;94.67;98567.22;4932367;29;20219;-67
2022/08/22 07:02:36;;;;;;;5.57;3.95;;;;;;;22.97;94.56;98560.00;4932581;29;20840;-67
2022/08/22 07:05:04;;;;;;;6.53;4.20;;;;;;;22.98;94.76;98561.59;4932373;29;20230;-67
2022/08/22 07:07:32;;;;;;;6.65;4.03;;;;;;;22.97;95.39;98554.78;4932409;29;20230;-67
2022/08/22 07:10:00;;;;;;;6.68;3.97;;;;;;;22.92;93.95;98567.59;4932525;29;20234;-67
2022/08/22 07:12:31;;;;;;;5.82;3.92;;;;;;;22.95;94.09;98568.03;4932338;29;20211;-59
2022/08/22 07:15:00;;;;;;;5.75;3.78;;;;;;;23.04;95.21;98566.81;4932435;29;20228;-58
2022/08/22 07:17:30;;;;;;;7.15;3.97;;;;;;;23.04;95.13;98558.19;4932584;29;20266;-66
2022/08/22 07:20:03;;;;;;;5.55;3.67;;;;;;;23.10;94.52;98553.97;4932259;29;20243;-67
2022/08/22 07:22:35;;;;;;;6.78;3.80;;;;;;;23.15;95.49;98557.53;4932514;29;20208;-66
2022/08/22 07:25:07;;;;;;;5.88;3.90;;;;;;;23.11;94.46;98561.56;4932062;29;20224;-66
2022/08/22 07:27:52;;;;;;;5.57;3.83;;;;;;;23.14;92.99;98561.16;4932549;29;20195;-66
2022/08/22 07:30:21;;;;;;;6.38;3.70;;;;;;;23.13;92.64;98554.34;4931908;29;20239;-59
2022/08/22 07:32:59;;;;;;;7.60;3.83;;;;;;;23.20;92.19;98554.31;4932106;29;20207;-58
2022/08/22 07:35:30;;;;;;;7.32;4.20;;;;;;;23.25;92.24;98557.94;4932151;29;20234;-58
2022/08/22 07:38:08;;;;;;;5.70;3.97;;;;;;;23.18;91.68;98559.72;4931905;29;20191;-59
2022/08/22 07:40:42;;;;;;;7.30;4.45;;;;;;;23.42;93.26;98560.09;4932008;29;20622;-59
2022/08/22 07:43:19;;;;;;;8.63;4.20;;;;;;;23.53;92.99;98564.63;4934396;29;20700;-67
2022/08/22 07:45:50;;;;;;;7.70;4.20;;;;;;;23.39;90.92;98566.50;4935953;29;20751;-66
2022/08/22 07:48:23;;;;;;;7.15;4.13;;;;;;;23.47;91.77;98571.50;4935806;29;20669;-66
2022/08/22 07:51:07;;;;;;;6.65;4.10;;;;;;;23.45;93.05;98562.28;4935845;29;20236;-66
2022/08/22 07:53:41;;;;;;;8.25;4.68;;;;;;;23.40;92.52;98554.28;4934922;29;20245;-66
2022/08/22 07:56:15;;;;;;;8.45;4.65;;;;;;;23.27;93.34;98553.31;4935818;29;20312;-59
2022/08/22 07:58:45;;;;;;;8.20;4.53;;;;;;;23.42;93.34;98552.25;4935650;29;20250;-59
2022/08/22 08:01:19;;;;;;;7.43;4.50;;;;;;;23.61;93.20;98551.34;4935971;29;20234;-59
2022/08/22 08:03:53;;;;;;;7.28;4.43;;;;;;;23.73;91.94;98567.97;4935561;29;20681;-59
2022/08/22 08:06:22;;;;;;;5.13;3.85;;;;;;;23.79;91.56;98573.38;4935605;29;20250;-59
2022/08/22 08:08:51;;;;;;;6.50;4.25;;;;;;;23.80;89.83;98569.78;4935399;29;20231;-66
2022/08/22 08:11:20;;;;;;;6.97;4.10;;;;;;;23.80;89.15;98580.22;4935441;29;20224;-67
2022/08/22 08:13:52;;;;;;;5.20;3.40;;;;;;;23.84;86.81;98584.00;4935463;29;20700;-66
2022/08/22 08:16:23;;;;;;;5.88;3.65;;;;;;;24.01;87.82;98582.50;4935337;29;20224;-66
2022/08/22 08:18:53;;;;;;;8.32;4.60;;;;;;;24.07;87.56;98591.31;4935422;29;20756;-66
2022/08/22 08:21:28;;;;;;;5.97;3.53;;;;;;;24.00;86.38;98590.53;4935334;29;20314;-59
2022/08/22 08:23:58;;;;;;;5.40;3.60;;;;;;;24.16;86.49;98601.31;4935547;29;20213;-66
2022/08/22 08:26:32;;;;;;;6.45;3.55;;;;;;;24.15;84.60;98599.72;4935287;29;20220;-67
2022/08/22 08:28:59;;;;;;;4.65;3.47;;;;;;;24.21;84.56;98595.47;4934991;29;20250;-58
2022/08/22 08:31:32;;;;;;;4.95;3.20;;;;;;;24.24;86.10;98599.47;4935186;29;20227;-59
2022/08/22 08:34:05;;;;;;;5.18;3.45;;;;;;;24.20;84.47;98598.25;4935065;29;20748;-58
2022/08/22 08:36:37;;;;;;;7.15;3.60;;;;;;;24.20;85.23;98595.66;4935126;29;20768;-58
2022/08/22 08:39:16;;;;;;;6.45;3.63;;;;;;;24.20;83.29;98616.56;4935205;29;20200;-58
2022/08/22 08:42:24;;;;;;;5.13;3.50;;;;;;;23.98;86.83;98608.25;4935592;29;20227;-66
2022/08/22 08:45:23;;;;;;;5.57;3.55;;;;;;;24.03;84.93;98614.44;4935170;29;20216;-66
2022/08/22 08:48:21;;;;;;;6.70;3.08;;;;;;;23.90;84.49;98612.69;4934878;29;20708;-66
2022/08/22 08:51:05;;;;;;;5.18;3.30;;;;;;;24.15;86.07;98604.94;4924625;29;20230;-66
2022/08/22 08:53:55;;;;;;;4.90;3.20;;;;;;;24.43;83.56;98606.38;4934652;29;20579;-66
2022/08/22 08:56:32;;;;;;;5.30;3.10;;;;;;;24.29;79.58;98615.28;4935050;29;20227;-66
2022/08/22 08:59:12;;;;;;;5.32;3.40;;;;;;;24.22;79.85;98610.09;4934525;29;21708;-66
2022/08/22 09:01:59;;;;;;;6.18;3.72;;;;;;;24.33;82.82;98611.25;4934788;29;20227;-59
2022/08/22 09:04:53;;;;;;;7.68;4.18;;;;;;;24.56;82.82;98615.94;4934534;29;20207;-58
2022/08/22 09:07:44;;;;;;;5.78;3.67;;;;;;;24.65;81.72;98614.66;4934801;29;20223;-59
2022/08/22 09:10:37;;;;;;;5.43;3.75;;;;;;;24.93;82.12;98616.84;4934043;29;20227;-59
2022/08/22 09:13:24;;;;;;;6.43;4.20;;;;;;;25.12;82.35;98624.72;4934407;29;20207;-58
2022/08/22 09:16:08;;;;;;;6.00;4.05;;;;;;;25.40;82.03;98616.41;4934399;29;20666;-58
2022/08/22 09:18:54;;;;;;;7.53;4.80;;;;;;;25.63;81.16;98610.53;4934291;29;20195;-58
2022/08/22 09:21:50;;;;;;;8.20;5.13;;;;;;;25.44;79.82;98602.66;4934371;29;20242;-58
2022/08/22 09:24:55;;;;;;;7.88;4.97;;;;;;;25.45;81.20;98608.69;4934108;29;20685;-59
2022/08/22 09:27:32;;;;;;;8.23;4.63;;;;;;;25.66;76.72;98607.47;4934594;29;20824;-66
2022/08/22 09:30:05;;;;;;;6.93;4.68;;;;;;;25.96;79.01;98608.28;4933784;29;20270;-65
2022/08/22 09:32:43;;;;;;;8.40;4.80;;;;;;;26.24;79.05;98609.53;4934323;29;20207;-65
2022/08/22 09:35:21;;;;;;;8.18;5.47;;;;;;;25.88;76.78;98608.59;4934045;29;20275;-67
2022/08/22 09:37:59;;;;;;;7.38;5.10;;;;;;;25.99;76.21;98606.25;4934136;29;20274;-66
2022/08/22 09:40:33;;;;;;;8.18;5.50;;;;;;;26.01;76.74;98606.84;4933675;29;20223;-66
2022/08/22 09:43:05;;;;;;;9.55;5.85;;;;;;;26.14;77.20;98606.66;4934186;29;20195;-65
2022/08/22 09:45:40;;;;;;;9.23;5.80;;;;;;;26.19;75.20;98609.41;4933880;29;20220;-67
2022/08/22 09:48:20;;;;;;;8.02;4.90;;;;;;;26.55;75.14;98613.72;4933904;29;20218;-65
2022/08/22 09:50:52;;;;;;;7.88;5.20;;;;;;;26.71;72.96;98614.88;4933705;29;20231;-66
2022/08/22 09:53:38;;;;;;;7.90;5.00;;;;;;;26.80;72.29;98612.72;4933669;29;20203;-66
2022/08/22 09:56:10;;;;;;;6.43;4.80;;;;;;;26.87;73.49;98619.44;4933569;29;20586;-65
2022/08/22 09:58:43;;;;;;;6.72;4.40;;;;;;;26.84;71.85;98611.22;4933821;29;20200;-67
2022/08/22 10:01:25;;;;;;;7.45;3.95;;;;;;;27.08;74.56;98612.00;4933554;29;20224;-67
2022/08/22 10:04:46;;;;;;;8.77;5.20;;;;;;;27.17;70.21;98610.69;4933479;29;20199;-66
2022/08/22 10:07:39;;;;;;;7.30;4.75;;;;;;;27.43;68.35;98608.56;4909892;29;20262;-66
2022/08/22 10:10:21;;;;;;;6.30;4.53;;;;;;;27.89;71.11;98596.34;4933255;29;20249;-66
2022/08/22 10:12:55;;;;;;;7.53;4.50;;;;;;;27.70;67.10;98599.16;4933397;29;20227;-66
2022/08/22 10:15:30;;;;;;;6.82;4.60;;;;;;;28.24;69.25;98598.00;4933219;29;20610;-65
2022/08/22 10:18:09;;;;;;;7.25;5.05;;;;;;;28.45;67.20;98605.25;4933260;29;20282;-66
2022/08/22 10:20:48;;;;;;;7.43;5.18;;;;;;;28.81;66.08;98600.50;4933299;29;20610;-58
2022/08/22 10:23:20;;;;;;;7.20;5.03;;;;;;;29.24;65.83;98591.91;4933083;29;20207;-59
2022/08/22 10:25:52;;;;;;;7.05;4.90;;;;;;;29.61;67.92;98585.22;4933217;29;20231;-58
2022/08/22 10:28:31;;;;;;;7.88;5.03;;;;;;;29.53;62.16;98587.25;4933361;29;20196;-59
2022/08/22 10:31:21;;;;;;;8.35;4.90;;;;;;;29.26;61.29;98583.75;4932823;29;20223;-58
2022/08/22 10:33:57;;;;;;;7.22;5.28;;;;;;;29.48;63.04;98595.09;4932989;29;20203;-59
2022/08/22 10:36:45;;;;;;;7.10;4.75;;;;;;;29.61;58.60;98579.94;4932945;29;20320;-58
2022/08/22 10:39:21;;;;;;;6.55;4.50;;;;;;;29.91;61.71;98575.03;4932891;29;20208;-59
2022/08/22 10:42:08;;;;;;;6.35;4.68;;;;;;;29.58;57.27;98569.91;4932967;29;20207;-59
2022/08/22 10:44:42;;;;;;;5.55;4.32;;;;;;;29.54;61.19;98566.97;4932794;29;20303;-58
2022/08/22 10:47:16;;;;;;;8.70;4.70;;;;;;;30.03;61.63;98568.81;4933027;29;20206;-58
2022/08/22 10:49:50;;;;;;;6.63;4.22;;;;;;;30.07;60.07;98564.59;4932572;29;20232;-58
2022/08/22 10:52:23;;;;;;;5.53;3.90;;;;;;;30.05;59.02;98558.78;4932709;29;20203;-58
2022/08/22 10:54:53;;;;;;;6.38;4.40;;;;;;;29.92;58.18;98560.78;4932639;29;20227;-59
2022/08/22 10:57:54;;;;;;;7.82;4.65;;;;;;;29.78;60.13;98551.69;4932629;29;20204;-59
2022/08/22 11:00:42;;;;;;;5.63;4.30;;;;;;;30.03;58.74;98550.34;4925577;29;20249;-59
2022/08/22 11:03:15;;;;;;;7.32;4.68;;;;;;;30.34;61.85;98546.94;4932378;29;20693;-59
2022/08/22 11:05:45;;;;;;;4.85;3.88;;;;;;;30.72;60.95;98541.63;4932641;29;20242;-59
2022/08/22 11:08:47;;;;;;;5.50;3.97;;;;;;;30.89;57.37;98537.81;4932446;29;20199;-59
2022/08/22 11:11:22;;;;;;;7.07;4.68;;;;;;;30.84;58.16;98535.13;4932515;29;20245;-59
2022/08/22 11:14:10;;;;;;;5.68;4.15;;;;;;;30.99;58.56;98536.25;4932314;29;20195;-59
2022/08/22 11:16:55;;;;;;;6.95;4.10;;;;;;;31.05;53.23;98540.50;4931816;29;20230;-59
2022/08/22 11:19:38;;;;;;;5.80;4.47;;;;;;;30.92;59.85;98530.41;4932099;29;20203;-59
2022/08/22 11:22:16;;;;;;;5.88;4.55;;;;;;;31.23;56.08;98532.09;4932399;29;20204;-59
2022/08/22 11:25:06;;;;;;;5.47;4.40;;;;;;;31.36;56.37;98536.16;4932193;29;20231;-59
2022/08/22 11:27:42;;;;;;;7.90;4.43;;;;;;;31.07;53.84;98533.13;4932569;29;20199;-58
2022/08/22 11:30:12;;;;;;;6.20;4.60;;;;;;;31.34;55.38;98523.16;4932137;29;20239;-59
2022/08/22 11:33:12;;;;;;;7.38;5.07;;;;;;;31.51;54.79;98527.47;4932246;29;20211;-59
2022/08/22 11:35:46;;;;;;;7.30;4.65;;;;;;;31.65;54.37;98522.47;4931966;29;20215;-59
2022/08/22 11:38:29;;;;;;;6.72;4.15;;;;;;;31.42;53.03;98513.19;4932010;29;20206;-59
2022/08/22 11:41:00;;;;;;;6.60;4.35;;;;;;;31.19;51.93;98517.84;4931989;29;20226;-59
2022/08/22 11:43:50;;;;;;;6.18;4.20;;;;;;;30.94;56.53;98518.53;4931899;29;20787;-59
2022/08/22 11:46:28;;;;;;;6.15;4.68;;;;;;;30.89;56.39;98519.31;4931939;29;20235;-59
2022/08/22 11:49:18;;;;;;;5.65;4.07;;;;;;;30.11;55.47;98515.63;4931859;29;20235;-59
2022/08/22 11:52:25;;;;;;;7.20;5.00;;;;;;;29.84;58.55;98513.78;4926871;29;20212;-59
2022/08/22 11:55:17;;;;;;;6.38;4.32;;;;;;;29.75;57.00;98518.72;4931936;29;20227;-59
2022/08/22 11:57:47;;;;;;;5.90;4.13;;;;;;;29.75;60.17;98515.28;4930534;29;20220;-59
2022/08/22 12:00:25;;;;;;;5.38;3.80;;;;;;;29.67;60.41;98511.28;4931710;29;20219;-59
2022/08/22 12:03:20;;;;;;;5.20;3.80;;;;;;;29.75;60.42;98508.19;4932043;29;20199;-59
2022/08/22 12:05:50;;;;;;;6.30;4.22;;;;;;;29.24;59.34;98502.38;4927342;29;20231;-59
2022/08/22 12:08:48;;;;;;;6.78;4.10;;;;;;;29.51;59.74;98507.66;4931835;29;20210;-59
2022/08/22 12:11:24;;;;;;;6.13;4.15;;;;;;;29.40;60.60;98499.91;4932083;29;20219;-59
2022/08/22 12:13:55;;;;;;;6.47;4.30;;;;;;;29.47;60.33;98496.03;4931758;29;20207;-59
2022/08/22 12:16:26;;;;;;;5.93;4.10;;;;;;;29.33;60.38;98505.38;4931809;29;20227;-59
2022/08/22 12:19:02;;;;;;;4.78;3.95;;;;;;;29.33;60.85;98495.63;4931727;29;20215;-59
2022/08/22 12:22:07;;;;;;;6.05;3.83;;;;;;;29.25;57.89;98493.44;4931902;29;20227;-59
2022/08/22 12:24:59;;;;;;;4.82;3.80;;;;;;;29.07;57.20;98496.41;4931573;29;20204;-59
2022/08/22 12:27:51;;;;;;;6.20;3.85;;;;;;;28.92;59.85;98496.97;4931683;29;20666;-59